Terminal Aerodrome Forecast
Issued by NWS

Home | Current Version | Previous Version | Graphics & Text | Print | Product List | Glossary On
Versions: 1 2 3 4 5 6 7 8 9 10 11 12 13 14 15 16 17 18 19 20
000
FTUS43 KUNR 191720
TAFGCC
TAF
KGCC 191720Z 1918/2018 22016KT P6SM BKN250
     FM200000 23011KT P6SM SCT250
     FM200300 22017G27KT P6SM SCT250=

USA.gov is the U.S. government's official web portal to all federal, state and local government web resources and services.